createdAt,value
2023-03-08T00:01:53.000Z,273.82
2023-03-08T00:03:20.000Z,273.82
2023-03-08T00:05:26.000Z,273.82
2023-03-08T00:08:17.000Z,273.82
2023-03-08T00:09:44.000Z,273.79
2023-03-08T00:11:50.000Z,273.82
2023-03-08T00:13:17.000Z,273.81
2023-03-08T00:15:23.000Z,273.82
2023-03-08T00:16:49.000Z,273.79
2023-03-08T00:18:56.000Z,273.82
2023-03-08T00:20:22.000Z,273.81
2023-03-08T00:22:28.000Z,273.82
2023-03-08T00:23:55.000Z,273.82
2023-03-08T00:26:01.000Z,273.82
2023-03-08T00:27:27.000Z,273.81
2023-03-08T00:29:33.000Z,273.81
2023-03-08T00:31:00.000Z,273.81
2023-03-08T00:33:06.000Z,273.81
2023-03-08T00:34:33.000Z,273.82
2023-03-08T00:36:39.000Z,273.81
2023-03-08T00:38:05.000Z,273.81
2023-03-08T00:40:11.000Z,273.81
2023-03-08T00:41:38.000Z,273.79
2023-03-08T00:43:44.000Z,273.78
2023-03-08T00:46:35.000Z,273.79
2023-03-08T00:48:02.000Z,273.79
2023-03-08T00:50:08.000Z,273.79
2023-03-08T00:51:34.000Z,273.79
2023-03-08T00:53:40.000Z,273.79
2023-03-08T00:55:07.000Z,273.79
2023-03-08T00:57:13.000Z,273.79
2023-03-08T00:58:39.000Z,273.81
2023-03-08T01:00:46.000Z,273.81
2023-03-08T01:02:12.000Z,273.81
2023-03-08T01:04:18.000Z,273.81
2023-03-08T01:05:45.000Z,273.81
2023-03-08T01:07:51.000Z,273.81
2023-03-08T01:09:17.000Z,273.81
2023-03-08T01:11:24.000Z,273.79
2023-03-08T01:12:50.000Z,273.78
2023-03-08T01:14:56.000Z,273.78
2023-03-08T01:16:23.000Z,273.77
2023-03-08T01:18:29.000Z,273.77
2023-03-08T01:19:55.000Z,273.75
2023-03-08T01:22:01.000Z,273.77
2023-03-08T01:24:53.000Z,273.74
2023-03-08T01:26:19.000Z,273.71
2023-03-08T01:28:25.000Z,273.71
2023-03-08T01:29:52.000Z,273.7
2023-03-08T01:31:58.000Z,273.7
2023-03-08T01:33:24.000Z,273.68
2023-03-08T01:35:30.000Z,273.66
2023-03-08T01:36:57.000Z,273.66
2023-03-08T01:39:03.000Z,273.66
2023-03-08T01:40:30.000Z,273.64
2023-03-08T01:42:36.000Z,273.64
2023-03-08T01:44:02.000Z,273.64
2023-03-08T01:46:08.000Z,273.64
2023-03-08T01:47:35.000Z,273.64
2023-03-08T01:49:41.000Z,273.63
2023-03-08T01:51:08.000Z,273.64
2023-03-08T01:53:14.000Z,273.63
2023-03-08T01:54:40.000Z,273.61
2023-03-08T01:56:46.000Z,273.63
2023-03-08T01:58:13.000Z,273.61
2023-03-08T02:00:19.000Z,273.6
2023-03-08T02:03:10.000Z,273.59
2023-03-08T02:04:37.000Z,273.57
2023-03-08T02:06:43.000Z,273.56
2023-03-08T02:08:09.000Z,273.54
2023-03-08T02:10:16.000Z,273.53
2023-03-08T02:11:42.000Z,273.54
2023-03-08T02:13:48.000Z,273.52
2023-03-08T02:15:15.000Z,273.54
2023-03-08T02:17:21.000Z,273.53
2023-03-08T02:18:48.000Z,273.53
2023-03-08T02:20:54.000Z,273.5
2023-03-08T02:22:20.000Z,273.49
2023-03-08T02:24:27.000Z,273.49
2023-03-08T02:25:53.000Z,273.47
2023-03-08T02:27:59.000Z,273.47
2023-03-08T02:29:26.000Z,273.46
2023-03-08T02:31:32.000Z,273.46
2023-03-08T02:32:58.000Z,273.45
2023-03-08T02:35:05.000Z,273.45
2023-03-08T02:36:31.000Z,273.43
2023-03-08T02:38:38.000Z,273.43
2023-03-08T02:41:29.000Z,273.45
2023-03-08T02:42:55.000Z,273.46
2023-03-08T02:45:01.000Z,273.45
2023-03-08T02:46:28.000Z,273.46
2023-03-08T02:48:34.000Z,273.45
2023-03-08T02:50:00.000Z,273.45
2023-03-08T02:52:07.000Z,273.45
2023-03-08T02:53:33.000Z,273.45
2023-03-08T02:55:39.000Z,273.43
2023-03-08T02:57:06.000Z,273.45
2023-03-08T02:59:12.000Z,273.45
2023-03-08T03:00:38.000Z,273.46
2023-03-08T03:02:44.000Z,273.46
2023-03-08T03:04:11.000Z,273.47
2023-03-08T03:06:17.000Z,273.47
2023-03-08T03:07:44.000Z,273.49
2023-03-08T03:09:50.000Z,273.5
2023-03-08T03:11:16.000Z,273.52
2023-03-08T03:13:22.000Z,273.52
2023-03-08T03:14:49.000Z,273.5
2023-03-08T03:16:55.000Z,273.49
2023-03-08T03:19:47.000Z,273.49
2023-03-08T03:21:12.000Z,273.47
2023-03-08T03:23:18.000Z,273.46
2023-03-08T03:24:45.000Z,273.43
2023-03-08T03:26:51.000Z,273.42
2023-03-08T03:28:17.000Z,273.39
2023-03-08T03:30:24.000Z,273.39
2023-03-08T03:31:50.000Z,273.38
2023-03-08T03:33:56.000Z,273.36
2023-03-08T03:35:21.000Z,273.36
2023-03-08T03:37:25.000Z,273.36
2023-03-08T03:38:50.000Z,273.35
2023-03-08T03:40:54.000Z,273.35
2023-03-08T03:42:20.000Z,273.35
2023-03-08T03:44:24.000Z,273.35
2023-03-08T03:45:49.000Z,273.35
2023-03-08T03:47:53.000Z,273.36
2023-03-08T03:49:19.000Z,273.36
2023-03-08T03:51:23.000Z,273.38
2023-03-08T03:52:48.000Z,273.36
2023-03-08T03:54:52.000Z,273.38
2023-03-08T03:57:41.000Z,273.38
2023-03-08T03:59:05.000Z,273.39
2023-03-08T04:01:12.000Z,273.38
2023-03-08T04:02:38.000Z,273.36
2023-03-08T04:04:44.000Z,273.38
2023-03-08T04:06:11.000Z,273.36
2023-03-08T04:08:17.000Z,273.36
2023-03-08T04:09:43.000Z,273.38
2023-03-08T04:11:49.000Z,273.39
2023-03-08T04:13:16.000Z,273.38
2023-03-08T04:15:20.000Z,273.38
2023-03-08T04:16:47.000Z,273.38
2023-03-08T04:18:53.000Z,273.38
2023-03-08T04:20:19.000Z,273.38
2023-03-08T04:22:25.000Z,273.36
2023-03-08T04:23:52.000Z,273.35
2023-03-08T04:25:58.000Z,273.35
2023-03-08T04:27:24.000Z,273.33
2023-03-08T04:29:30.000Z,273.35
2023-03-08T04:30:55.000Z,273.35
2023-03-08T04:33:00.000Z,273.35
2023-03-08T04:35:52.000Z,273.36
2023-03-08T04:37:18.000Z,273.36
2023-03-08T04:39:24.000Z,273.39
2023-03-08T04:40:51.000Z,273.41
2023-03-08T04:42:56.000Z,273.41
2023-03-08T04:44:21.000Z,273.42
2023-03-08T04:46:25.000Z,273.45
2023-03-08T04:47:52.000Z,273.45
2023-03-08T04:49:58.000Z,273.45
2023-03-08T04:51:24.000Z,273.46
2023-03-08T04:53:30.000Z,273.47
2023-03-08T04:54:57.000Z,273.47
2023-03-08T04:57:03.000Z,273.46
2023-03-08T04:58:30.000Z,273.47
2023-03-08T05:00:36.000Z,273.49
2023-03-08T05:02:02.000Z,273.46
2023-03-08T05:04:09.000Z,273.45
2023-03-08T05:05:35.000Z,273.45
2023-03-08T05:07:41.000Z,273.45
2023-03-08T05:09:08.000Z,273.45
2023-03-08T05:11:14.000Z,273.45
2023-03-08T05:14:05.000Z,273.45
2023-03-08T05:15:32.000Z,273.43
2023-03-08T05:17:37.000Z,273.42
2023-03-08T05:19:03.000Z,273.39
2023-03-08T05:21:08.000Z,273.38
2023-03-08T05:22:33.000Z,273.38
2023-03-08T05:24:50.000Z,273.36
2023-03-08T05:26:17.000Z,273.38
2023-03-08T05:28:23.000Z,273.36
2023-03-08T05:29:49.000Z,273.36
2023-03-08T05:31:53.000Z,273.36
2023-03-08T05:33:20.000Z,273.36
2023-03-08T05:35:26.000Z,273.33
2023-03-08T05:36:51.000Z,273.31
2023-03-08T05:38:54.000Z,273.3
2023-03-08T05:40:19.000Z,273.28
2023-03-08T05:42:23.000Z,273.3
2023-03-08T05:43:48.000Z,273.28
2023-03-08T05:45:51.000Z,273.27
2023-03-08T05:47:16.000Z,273.26
2023-03-08T05:49:20.000Z,273.23
2023-03-08T05:52:09.000Z,273.23
2023-03-08T05:53:33.000Z,273.23
2023-03-08T05:55:37.000Z,273.23
2023-03-08T05:57:01.000Z,273.21
2023-03-08T05:59:05.000Z,273.21
2023-03-08T06:00:29.000Z,273.21
2023-03-08T06:02:33.000Z,273.19
2023-03-08T06:03:59.000Z,273.19
2023-03-08T06:06:03.000Z,273.19
2023-03-08T06:07:27.000Z,273.23
2023-03-08T06:09:31.000Z,273.24
2023-03-08T06:10:55.000Z,273.24
2023-03-08T06:12:59.000Z,273.23
2023-03-08T06:14:25.000Z,273.21
2023-03-08T06:16:28.000Z,273.21
2023-03-08T06:17:53.000Z,273.21
2023-03-08T06:19:57.000Z,273.21
2023-03-08T06:21:23.000Z,273.21
2023-03-08T06:23:29.000Z,273.21
2023-03-08T06:24:55.000Z,273.23
2023-03-08T06:26:59.000Z,273.23
2023-03-08T06:29:49.000Z,273.26
2023-03-08T06:31:13.000Z,273.28
2023-03-08T06:33:18.000Z,273.28
2023-03-08T06:34:44.000Z,273.31
2023-03-08T06:36:48.000Z,273.33
2023-03-08T06:38:14.000Z,273.35
2023-03-08T06:40:20.000Z,273.36
2023-03-08T06:41:47.000Z,273.39
2023-03-08T06:43:53.000Z,273.42
2023-03-08T06:45:20.000Z,273.45
2023-03-08T06:47:26.000Z,273.46
2023-03-08T06:48:52.000Z,273.47
2023-03-08T06:50:58.000Z,273.52
2023-03-08T06:52:25.000Z,273.52
2023-03-08T06:54:31.000Z,273.53
2023-03-08T06:55:58.000Z,273.56
2023-03-08T06:58:04.000Z,273.56
2023-03-08T06:59:30.000Z,273.56
2023-03-08T07:01:36.000Z,273.57
2023-03-08T07:03:03.000Z,273.57
2023-03-08T07:05:09.000Z,273.57
2023-03-08T07:08:00.000Z,273.6
2023-03-08T07:09:27.000Z,273.6
2023-03-08T07:11:33.000Z,273.6
2023-03-08T07:13:00.000Z,273.61
2023-03-08T07:15:06.000Z,273.6
2023-03-08T07:16:32.000Z,273.63
2023-03-08T07:18:38.000Z,273.63
2023-03-08T07:20:05.000Z,273.63
2023-03-08T07:22:11.000Z,273.63
2023-03-08T07:23:38.000Z,273.66
2023-03-08T07:25:44.000Z,273.67
2023-03-08T07:27:10.000Z,273.67
2023-03-08T07:29:16.000Z,273.7
2023-03-08T07:30:43.000Z,273.7
2023-03-08T07:32:49.000Z,273.73
2023-03-08T07:34:16.000Z,273.75
2023-03-08T07:36:22.000Z,273.77
2023-03-08T07:37:48.000Z,273.79
2023-03-08T07:39:54.000Z,273.79
2023-03-08T07:41:21.000Z,273.79
2023-03-08T07:43:27.000Z,273.81
2023-03-08T07:46:18.000Z,273.82
2023-03-08T07:47:45.000Z,273.84
2023-03-08T07:49:51.000Z,273.86
2023-03-08T07:51:17.000Z,273.88
2023-03-08T07:53:23.000Z,273.92
2023-03-08T07:54:50.000Z,273.92
2023-03-08T07:56:56.000Z,273.94
2023-03-08T07:58:23.000Z,273.94
2023-03-08T08:00:29.000Z,273.96
2023-03-08T08:01:55.000Z,273.97
2023-03-08T08:04:02.000Z,274
2023-03-08T08:05:28.000Z,274
2023-03-08T08:07:34.000Z,274.01
2023-03-08T08:09:01.000Z,274.06
2023-03-08T08:11:07.000Z,274.08
2023-03-08T08:12:33.000Z,274.12
2023-03-08T08:14:39.000Z,274.12
2023-03-08T08:16:06.000Z,274.14
2023-03-08T08:18:12.000Z,274.15
2023-03-08T08:19:39.000Z,274.17
2023-03-08T08:21:45.000Z,274.19
2023-03-08T08:24:36.000Z,274.22
2023-03-08T08:26:03.000Z,274.28
2023-03-08T08:28:09.000Z,274.33
2023-03-08T08:29:35.000Z,274.36
2023-03-08T08:31:41.000Z,274.4
2023-03-08T08:33:08.000Z,274.43
2023-03-08T08:35:14.000Z,274.47
2023-03-08T08:36:40.000Z,274.49
2023-03-08T08:38:47.000Z,274.49
2023-03-08T08:40:13.000Z,274.51
2023-03-08T08:42:19.000Z,274.54
2023-03-08T08:43:46.000Z,274.58
2023-03-08T08:45:52.000Z,274.58
2023-03-08T08:47:18.000Z,274.58
2023-03-08T08:49:25.000Z,274.56
2023-03-08T08:50:51.000Z,274.54
2023-03-08T08:52:57.000Z,274.53
2023-03-08T08:54:24.000Z,274.51
2023-03-08T08:56:30.000Z,274.49
2023-03-08T08:57:57.000Z,274.47
2023-03-08T09:00:03.000Z,274.46
2023-03-08T09:02:54.000Z,274.43
2023-03-08T09:04:21.000Z,274.43
2023-03-08T09:06:27.000Z,274.42
2023-03-08T09:07:54.000Z,274.4
2023-03-08T09:10:00.000Z,274.38
2023-03-08T09:11:26.000Z,274.36
2023-03-08T09:13:32.000Z,274.33
2023-03-08T09:14:59.000Z,274.35
2023-03-08T09:17:05.000Z,274.35
2023-03-08T09:18:32.000Z,274.33
2023-03-08T09:20:38.000Z,274.33
2023-03-08T09:22:04.000Z,274.33
2023-03-08T09:24:10.000Z,274.32
2023-03-08T09:25:37.000Z,274.31
2023-03-08T09:27:43.000Z,274.33
2023-03-08T09:29:09.000Z,274.33
2023-03-08T09:31:16.000Z,274.32
2023-03-08T09:32:42.000Z,274.29
2023-03-08T09:34:49.000Z,274.29
2023-03-08T09:36:15.000Z,274.28
2023-03-08T09:38:21.000Z,274.29
2023-03-08T09:41:12.000Z,274.33
2023-03-08T09:42:39.000Z,274.33
2023-03-08T09:44:45.000Z,274.33
2023-03-08T09:46:11.000Z,274.33
2023-03-08T09:48:18.000Z,274.33
2023-03-08T09:49:44.000Z,274.35
2023-03-08T09:51:50.000Z,274.35
2023-03-08T09:53:17.000Z,274.4
2023-03-08T09:55:23.000Z,274.43
2023-03-08T09:56:50.000Z,274.44
2023-03-08T09:58:56.000Z,274.46
2023-03-08T10:00:22.000Z,274.5
2023-03-08T10:02:28.000Z,274.51
2023-03-08T10:03:55.000Z,274.56
2023-03-08T10:06:01.000Z,274.61
2023-03-08T10:07:28.000Z,274.64
2023-03-08T10:09:34.000Z,274.68
2023-03-08T10:11:00.000Z,274.72
2023-03-08T10:13:07.000Z,274.77
2023-03-08T10:14:33.000Z,274.8
2023-03-08T10:16:39.000Z,274.77
2023-03-08T10:19:30.000Z,274.81
2023-03-08T10:20:57.000Z,274.83
2023-03-08T10:23:03.000Z,274.84
2023-03-08T10:24:30.000Z,274.9
2023-03-08T10:26:36.000Z,274.91
2023-03-08T10:28:02.000Z,274.95
2023-03-08T10:30:08.000Z,275.02
2023-03-08T10:31:35.000Z,275.1
2023-03-08T10:33:41.000Z,275.15
2023-03-08T10:35:07.000Z,275.27
2023-03-08T10:37:13.000Z,275.32
2023-03-08T10:38:40.000Z,275.37
2023-03-08T10:40:46.000Z,275.39
2023-03-08T10:42:13.000Z,275.41
2023-03-08T10:44:19.000Z,275.45
2023-03-08T10:45:48.000Z,275.41
2023-03-08T10:47:55.000Z,275.43
2023-03-08T10:49:21.000Z,275.46
2023-03-08T10:51:27.000Z,275.41
2023-03-08T10:52:54.000Z,275.41
2023-03-08T10:55:00.000Z,275.41
2023-03-08T10:57:51.000Z,275.37
2023-03-08T10:59:18.000Z,275.37
2023-03-08T11:01:24.000Z,275.42
2023-03-08T11:02:50.000Z,275.45
2023-03-08T11:04:56.000Z,275.49
2023-03-08T11:06:23.000Z,275.53
2023-03-08T11:08:29.000Z,275.53
2023-03-08T11:09:56.000Z,275.5
2023-03-08T11:12:02.000Z,275.46
2023-03-08T11:13:28.000Z,275.46
2023-03-08T11:15:34.000Z,275.42
2023-03-08T11:17:01.000Z,275.42
2023-03-08T11:19:07.000Z,275.35
2023-03-08T11:20:34.000Z,275.35
2023-03-08T11:22:40.000Z,275.41
2023-03-08T11:24:06.000Z,275.45
2023-03-08T11:26:13.000Z,275.46
2023-03-08T11:27:39.000Z,275.48
2023-03-08T11:29:46.000Z,275.49
2023-03-08T11:31:12.000Z,275.55
2023-03-08T11:33:18.000Z,275.59
2023-03-08T11:36:10.000Z,275.7
2023-03-08T11:37:39.000Z,275.7
2023-03-08T11:39:45.000Z,275.67
2023-03-08T11:41:12.000Z,275.63
2023-03-08T11:43:18.000Z,275.6
2023-03-08T11:44:44.000Z,275.56
2023-03-08T11:46:50.000Z,275.59
2023-03-08T11:48:17.000Z,275.6
2023-03-08T11:50:23.000Z,275.6
2023-03-08T11:51:50.000Z,275.59
2023-03-08T11:53:56.000Z,275.59
2023-03-08T11:55:22.000Z,275.55
2023-03-08T11:57:28.000Z,275.57
2023-03-08T11:58:55.000Z,275.52
2023-03-08T12:01:01.000Z,275.52
2023-03-08T12:02:28.000Z,275.53
2023-03-08T12:04:34.000Z,275.52
2023-03-08T12:06:00.000Z,275.56
2023-03-08T12:08:07.000Z,275.63
2023-03-08T12:09:34.000Z,275.62
2023-03-08T12:11:40.000Z,275.64
2023-03-08T12:14:31.000Z,275.66
2023-03-08T12:15:58.000Z,275.7
2023-03-08T12:18:04.000Z,275.75
2023-03-08T12:19:30.000Z,275.74
2023-03-08T12:21:36.000Z,275.78
2023-03-08T12:23:03.000Z,275.85
2023-03-08T12:25:09.000Z,275.92
2023-03-08T12:26:36.000Z,275.91
2023-03-08T12:28:42.000Z,275.88
2023-03-08T12:30:08.000Z,275.87
2023-03-08T12:32:14.000Z,275.85
2023-03-08T12:33:42.000Z,275.89
2023-03-08T12:35:48.000Z,275.95
2023-03-08T12:37:14.000Z,276.07
2023-03-08T12:39:21.000Z,276.13
2023-03-08T12:40:47.000Z,276.18
2023-03-08T12:42:54.000Z,276.21
2023-03-08T12:44:20.000Z,276.29
2023-03-08T12:46:26.000Z,276.39
2023-03-08T12:47:53.000Z,276.4
2023-03-08T12:49:59.000Z,276.37
2023-03-08T12:52:50.000Z,276.43
2023-03-08T12:54:17.000Z,276.44
2023-03-08T12:56:23.000Z,276.4
2023-03-08T12:57:50.000Z,276.43
2023-03-08T12:59:56.000Z,276.44
2023-03-08T13:01:22.000Z,276.5
2023-03-08T13:03:29.000Z,276.53
2023-03-08T13:04:55.000Z,276.5
2023-03-08T13:07:01.000Z,276.48
2023-03-08T13:08:28.000Z,276.46
2023-03-08T13:10:34.000Z,276.43
2023-03-08T13:12:01.000Z,276.41
2023-03-08T13:14:07.000Z,276.36
2023-03-08T13:15:33.000Z,276.36
2023-03-08T13:17:39.000Z,276.32
2023-03-08T13:19:06.000Z,276.25
2023-03-08T13:21:12.000Z,276.26
2023-03-08T13:22:38.000Z,276.29
2023-03-08T13:24:45.000Z,276.36
2023-03-08T13:26:11.000Z,276.37
2023-03-08T13:28:17.000Z,276.33
2023-03-08T13:31:09.000Z,276.3
2023-03-08T13:32:35.000Z,276.28
2023-03-08T13:34:41.000Z,276.26
2023-03-08T13:36:08.000Z,276.29
2023-03-08T13:38:14.000Z,276.26
2023-03-08T13:39:41.000Z,276.3
2023-03-08T13:41:47.000Z,276.35
2023-03-08T13:43:13.000Z,276.37
2023-03-08T13:45:20.000Z,276.36
2023-03-08T13:46:46.000Z,276.3
2023-03-08T13:48:52.000Z,276.36
2023-03-08T13:50:19.000Z,276.48
2023-03-08T13:52:25.000Z,276.53
2023-03-08T13:53:51.000Z,276.57
2023-03-08T13:55:57.000Z,276.58
2023-03-08T13:57:24.000Z,276.6
2023-03-08T13:59:30.000Z,276.58
2023-03-08T14:00:57.000Z,276.53
2023-03-08T14:03:03.000Z,276.53
2023-03-08T14:04:30.000Z,276.41
2023-03-08T14:06:36.000Z,276.36
2023-03-08T14:09:27.000Z,276.29
2023-03-08T14:10:54.000Z,276.23
2023-03-08T14:13:00.000Z,276.15
2023-03-08T14:14:26.000Z,276.14
2023-03-08T14:16:33.000Z,276.14
2023-03-08T14:17:59.000Z,276.13
2023-03-08T14:20:05.000Z,276.11
2023-03-08T14:21:32.000Z,276.11
2023-03-08T14:23:38.000Z,276.1
2023-03-08T14:25:05.000Z,276.03
2023-03-08T14:27:11.000Z,276.04
2023-03-08T14:28:38.000Z,276.06
2023-03-08T14:30:47.000Z,276.03
2023-03-08T14:32:13.000Z,275.96
2023-03-08T14:34:20.000Z,275.99
2023-03-08T14:35:46.000Z,275.94
2023-03-08T14:37:53.000Z,275.95
2023-03-08T14:39:19.000Z,275.95
2023-03-08T14:41:25.000Z,275.95
2023-03-08T14:42:52.000Z,275.94
2023-03-08T14:44:58.000Z,275.94
2023-03-08T14:47:49.000Z,275.94
2023-03-08T14:49:15.000Z,275.92
2023-03-08T14:51:22.000Z,275.94
2023-03-08T14:52:48.000Z,275.95
2023-03-08T14:54:54.000Z,275.96
2023-03-08T14:56:21.000Z,276.02
2023-03-08T14:58:27.000Z,275.99
2023-03-08T14:59:54.000Z,275.94
2023-03-08T15:02:00.000Z,275.91
2023-03-08T15:03:26.000Z,275.92
2023-03-08T15:05:33.000Z,275.94
2023-03-08T15:06:59.000Z,275.94
2023-03-08T15:09:05.000Z,275.94
2023-03-08T15:10:32.000Z,275.89
2023-03-08T15:12:38.000Z,275.88
2023-03-08T15:14:05.000Z,275.85
2023-03-08T15:16:11.000Z,275.81
2023-03-08T15:17:40.000Z,275.75
2023-03-08T15:19:46.000Z,275.75
2023-03-08T15:21:13.000Z,275.73
2023-03-08T15:23:19.000Z,275.71
2023-03-08T15:26:10.000Z,275.64
2023-03-08T15:27:37.000Z,275.63
2023-03-08T15:29:43.000Z,275.6
2023-03-08T15:31:10.000Z,275.55
2023-03-08T15:33:16.000Z,275.53
2023-03-08T15:34:42.000Z,275.5
2023-03-08T15:36:49.000Z,275.48
2023-03-08T15:38:15.000Z,275.43
2023-03-08T15:40:21.000Z,275.41
2023-03-08T15:41:48.000Z,275.39
2023-03-08T15:43:54.000Z,275.37
2023-03-08T15:45:20.000Z,275.34
2023-03-08T15:47:27.000Z,275.32
2023-03-08T15:48:53.000Z,275.34
2023-03-08T15:50:59.000Z,275.34
2023-03-08T15:52:26.000Z,275.32
2023-03-08T15:54:36.000Z,275.31
2023-03-08T15:56:03.000Z,275.3
2023-03-08T15:58:09.000Z,275.28
2023-03-08T15:59:38.000Z,275.27
2023-03-08T16:01:44.000Z,275.24
2023-03-08T16:04:35.000Z,275.22
2023-03-08T16:06:02.000Z,275.17
2023-03-08T16:08:08.000Z,275.17
2023-03-08T16:09:34.000Z,275.15
2023-03-08T16:11:40.000Z,275.13
2023-03-08T16:13:07.000Z,275.12
2023-03-08T16:15:13.000Z,275.12
2023-03-08T16:16:40.000Z,275.1
2023-03-08T16:18:51.000Z,275.1
2023-03-08T16:20:18.000Z,275.09
2023-03-08T16:22:24.000Z,275.05
2023-03-08T16:23:53.000Z,275.05
2023-03-08T16:26:00.000Z,275.04
2023-03-08T16:27:40.000Z,275.02
2023-03-08T16:29:47.000Z,275.01
2023-03-08T16:31:13.000Z,274.99
2023-03-08T16:33:19.000Z,274.98
2023-03-08T16:34:46.000Z,274.98
2023-03-08T16:36:52.000Z,274.98
2023-03-08T16:38:18.000Z,274.98
2023-03-08T16:40:24.000Z,274.98
2023-03-08T16:43:16.000Z,274.97
2023-03-08T16:44:42.000Z,274.95
2023-03-08T16:46:49.000Z,274.94
2023-03-08T16:48:15.000Z,274.94
2023-03-08T16:50:21.000Z,274.92
2023-03-08T16:51:48.000Z,274.94
2023-03-08T16:53:54.000Z,274.91
2023-03-08T16:55:20.000Z,274.92
2023-03-08T16:57:27.000Z,274.91
2023-03-08T16:58:53.000Z,274.9
2023-03-08T17:00:59.000Z,274.91
2023-03-08T17:02:26.000Z,274.91
2023-03-08T17:04:32.000Z,274.92
2023-03-08T17:05:59.000Z,274.91
2023-03-08T17:08:05.000Z,274.92
2023-03-08T17:09:32.000Z,274.9
2023-03-08T17:11:38.000Z,274.9
2023-03-08T17:13:04.000Z,274.87
2023-03-08T17:15:11.000Z,274.85
2023-03-08T17:16:37.000Z,274.87
2023-03-08T17:18:43.000Z,274.84
2023-03-08T17:21:34.000Z,274.76
2023-03-08T17:23:01.000Z,274.71
2023-03-08T17:25:07.000Z,274.69
2023-03-08T17:26:33.000Z,274.71
2023-03-08T17:28:39.000Z,274.72
2023-03-08T17:30:06.000Z,274.73
2023-03-08T17:32:12.000Z,274.76
2023-03-08T17:33:39.000Z,274.76
2023-03-08T17:35:45.000Z,274.76
2023-03-08T17:37:12.000Z,274.76
2023-03-08T17:39:18.000Z,274.76
2023-03-08T17:40:44.000Z,274.73
2023-03-08T17:42:50.000Z,274.72
2023-03-08T17:44:17.000Z,274.72
2023-03-08T17:46:23.000Z,274.73
2023-03-08T17:47:50.000Z,274.72
2023-03-08T17:49:56.000Z,274.72
2023-03-08T17:51:22.000Z,274.72
2023-03-08T17:53:28.000Z,274.72
2023-03-08T17:54:55.000Z,274.72
2023-03-08T17:57:01.000Z,274.72
2023-03-08T17:59:52.000Z,274.72
2023-03-08T18:01:19.000Z,274.71
2023-03-08T18:03:25.000Z,274.68
2023-03-08T18:04:51.000Z,274.68
2023-03-08T18:06:57.000Z,274.66
2023-03-08T18:08:24.000Z,274.66
2023-03-08T18:10:30.000Z,274.64
2023-03-08T18:11:56.000Z,274.65
2023-03-08T18:14:02.000Z,274.65
2023-03-08T18:15:29.000Z,274.64
2023-03-08T18:17:35.000Z,274.65
2023-03-08T18:19:02.000Z,274.66
2023-03-08T18:21:08.000Z,274.64
2023-03-08T18:22:40.000Z,274.62
2023-03-08T18:24:46.000Z,274.64
2023-03-08T18:26:13.000Z,274.65
2023-03-08T18:28:19.000Z,274.64
2023-03-08T18:29:45.000Z,274.62
2023-03-08T18:31:52.000Z,274.62
2023-03-08T18:33:18.000Z,274.62
2023-03-08T18:35:24.000Z,274.61
2023-03-08T18:38:15.000Z,274.62
2023-03-08T18:39:42.000Z,274.62
2023-03-08T18:41:48.000Z,274.61
2023-03-08T18:43:15.000Z,274.59
2023-03-08T18:45:21.000Z,274.59
2023-03-08T18:46:47.000Z,274.61
2023-03-08T18:48:53.000Z,274.59
2023-03-08T18:50:20.000Z,274.58
2023-03-08T18:52:26.000Z,274.58
2023-03-08T18:53:52.000Z,274.56
2023-03-08T18:55:59.000Z,274.56
2023-03-08T18:57:25.000Z,274.54
2023-03-08T18:59:31.000Z,274.56
2023-03-08T19:00:58.000Z,274.56
2023-03-08T19:03:04.000Z,274.58
2023-03-08T19:04:30.000Z,274.59
2023-03-08T19:06:36.000Z,274.61
2023-03-08T19:08:03.000Z,274.59
2023-03-08T19:10:09.000Z,274.59
2023-03-08T19:11:35.000Z,274.62
2023-03-08T19:13:42.000Z,274.61
2023-03-08T19:16:33.000Z,274.62
2023-03-08T19:17:59.000Z,274.65
2023-03-08T19:20:05.000Z,274.68
2023-03-08T19:21:32.000Z,274.72
2023-03-08T19:23:38.000Z,274.78
2023-03-08T19:25:04.000Z,274.8
2023-03-08T19:27:11.000Z,274.81
2023-03-08T19:28:40.000Z,274.87
2023-03-08T19:30:46.000Z,274.88
2023-03-08T19:32:12.000Z,274.91
2023-03-08T19:34:18.000Z,274.97
2023-03-08T19:35:45.000Z,275.02
2023-03-08T19:37:51.000Z,275.04
2023-03-08T19:39:18.000Z,274.99
2023-03-08T19:41:24.000Z,274.97
2023-03-08T19:42:50.000Z,274.9
2023-03-08T19:44:56.000Z,274.85
2023-03-08T19:46:23.000Z,274.83
2023-03-08T19:48:29.000Z,274.81
2023-03-08T19:49:56.000Z,274.8
2023-03-08T19:52:02.000Z,274.78
2023-03-08T19:54:53.000Z,274.76
2023-03-08T19:56:19.000Z,274.76
2023-03-08T19:58:25.000Z,274.73
2023-03-08T19:59:52.000Z,274.73
2023-03-08T20:01:58.000Z,274.76
2023-03-08T20:03:25.000Z,274.72
2023-03-08T20:05:31.000Z,274.73
2023-03-08T20:06:57.000Z,274.72
2023-03-08T20:09:03.000Z,274.71
2023-03-08T20:10:30.000Z,274.72
2023-03-08T20:12:36.000Z,274.69
2023-03-08T20:14:03.000Z,274.69
2023-03-08T20:16:09.000Z,274.71
2023-03-08T20:17:35.000Z,274.71
2023-03-08T20:19:41.000Z,274.71
2023-03-08T20:21:08.000Z,274.72
2023-03-08T20:23:14.000Z,274.72
2023-03-08T20:24:40.000Z,274.73
2023-03-08T20:26:47.000Z,274.72
2023-03-08T20:28:13.000Z,274.76
2023-03-08T20:30:19.000Z,274.76
2023-03-08T20:33:11.000Z,274.72
2023-03-08T20:34:37.000Z,274.73
2023-03-08T20:36:43.000Z,274.77
2023-03-08T20:38:10.000Z,274.78
2023-03-08T20:40:16.000Z,274.81
2023-03-08T20:41:42.000Z,274.85
2023-03-08T20:43:48.000Z,274.88
2023-03-08T20:45:15.000Z,274.9
2023-03-08T20:47:21.000Z,274.91
2023-03-08T20:48:47.000Z,274.92
2023-03-08T20:50:54.000Z,274.95
2023-03-08T20:52:20.000Z,274.97
2023-03-08T20:54:26.000Z,274.98
2023-03-08T20:55:53.000Z,274.97
2023-03-08T20:57:59.000Z,274.95
2023-03-08T20:59:25.000Z,274.97
2023-03-08T21:01:31.000Z,274.94
2023-03-08T21:02:58.000Z,274.94
2023-03-08T21:05:04.000Z,274.91
2023-03-08T21:06:31.000Z,274.94
2023-03-08T21:08:37.000Z,274.95
2023-03-08T21:11:28.000Z,275.04
2023-03-08T21:12:54.000Z,274.99
2023-03-08T21:15:01.000Z,274.97
2023-03-08T21:16:30.000Z,274.92
2023-03-08T21:18:36.000Z,274.9
2023-03-08T21:20:02.000Z,274.88
2023-03-08T21:22:09.000Z,274.87
2023-03-08T21:23:35.000Z,274.85
2023-03-08T21:25:41.000Z,274.84
2023-03-08T21:27:08.000Z,274.84
2023-03-08T21:29:14.000Z,274.8
2023-03-08T21:30:40.000Z,274.78
2023-03-08T21:32:47.000Z,274.77
2023-03-08T21:34:13.000Z,274.73
2023-03-08T21:36:19.000Z,274.73
2023-03-08T21:37:46.000Z,274.73
2023-03-08T21:39:52.000Z,274.71
2023-03-08T21:41:19.000Z,274.72
2023-03-08T21:43:25.000Z,274.72
2023-03-08T21:44:51.000Z,274.71
2023-03-08T21:46:57.000Z,274.71
2023-03-08T21:49:49.000Z,274.71
2023-03-08T21:51:15.000Z,274.71
2023-03-08T21:53:21.000Z,274.72
2023-03-08T21:54:48.000Z,274.69
2023-03-08T21:56:54.000Z,274.72
2023-03-08T21:58:20.000Z,274.73
2023-03-08T22:00:26.000Z,274.73
2023-03-08T22:01:53.000Z,274.76
2023-03-08T22:03:59.000Z,274.76
2023-03-08T22:05:26.000Z,274.73
2023-03-08T22:07:32.000Z,274.73
2023-03-08T22:08:58.000Z,274.76
2023-03-08T22:11:04.000Z,274.73
2023-03-08T22:12:31.000Z,274.72
2023-03-08T22:14:37.000Z,274.72
2023-03-08T22:16:04.000Z,274.72
2023-03-08T22:18:10.000Z,274.71
2023-03-08T22:19:37.000Z,274.71
2023-03-08T22:21:43.000Z,274.71
2023-03-08T22:23:09.000Z,274.71
2023-03-08T22:25:16.000Z,274.66
2023-03-08T22:28:07.000Z,274.65
2023-03-08T22:29:33.000Z,274.66
2023-03-08T22:31:39.000Z,274.71
2023-03-08T22:33:06.000Z,274.72
2023-03-08T22:35:12.000Z,274.72
2023-03-08T22:36:39.000Z,274.73
2023-03-08T22:38:45.000Z,274.73
2023-03-08T22:40:11.000Z,274.76
2023-03-08T22:42:17.000Z,274.77
2023-03-08T22:43:44.000Z,274.87
2023-03-08T22:45:50.000Z,274.88
2023-03-08T22:47:16.000Z,274.9
2023-03-08T22:49:23.000Z,274.92